CYTZ/YTZ METAR and TAF weather

Enter ICAO airport designator
Station Type Date Time Source
CYTZ METAR 2017/02/19 23:00 UTC NOAA

CYTZ 192300Z AUTO 32008KT 9SM CLR 08/M00 A3002 RMK SLP170


Station Type Date Time Source
CYTZ Decoded METAR 2017/02/19 23:00 UTC NOAA

Toronto Island Airport Automated Reporting Station, Canada (CYTZ) 43-38N 079-24W
Feb 19, 2017 - 06:00 PM EST / 2017.02.19 2300 UTC
Wind: from the NW (320 degrees) at 9 MPH (8 KT):0
Visibility: 9 mile(s):0
Sky conditions: clear
Temperature: 46 F (8 C)
Dew Point: 32 F (0 C)
Relative Humidity: 56%
Pressure (altimeter): 30.02 in. Hg (1016 hPa)
ob: CYTZ 192300Z AUTO 32008KT 9SM CLR 08/M00 A3002 RMK SLP170
cycle: 23

Station Type Date Time Source
CYTZ TAF 2017/02/19 20:39 UTC NOAA

TAF CYTZ 191938Z 1920/2020 27015G25KT P6SM FEW030
FM200200 31010KT P6SM FEW020
FM201200 02005KT P6SM SKC
BECMG 2016/2018 11005KT
RMK FCST BASED ON AUTO OBS. NXT FCST BY 200200Z


Example: see airport list